createdAt,value
2023-02-13T00:00:56.244Z,7.26
2023-02-13T00:03:42.888Z,7.28
2023-02-13T00:06:27.918Z,7.32
2023-02-13T00:09:12.911Z,7.34
2023-02-13T00:11:58.127Z,7.29
2023-02-13T00:14:43.454Z,7.22
2023-02-13T00:17:28.528Z,7.19
2023-02-13T00:20:13.626Z,7.09
2023-02-13T00:23:02.056Z,7.04
2023-02-13T00:25:47.339Z,6.97
2023-02-13T00:28:32.441Z,6.99
2023-02-13T00:31:20.268Z,7.01
2023-02-13T00:34:05.640Z,6.97
2023-02-13T00:36:50.665Z,7.01
2023-02-13T00:39:35.557Z,7.03
2023-02-13T00:42:20.906Z,6.99
2023-02-13T00:45:06.104Z,7.05
2023-02-13T00:47:51.318Z,7.03
2023-02-13T00:50:36.667Z,6.99
2023-02-13T00:53:34.167Z,6.97
2023-02-13T00:56:19.245Z,6.94
2023-02-13T00:59:04.163Z,6.96
2023-02-13T01:01:49.646Z,6.93
2023-02-13T01:04:35.017Z,6.93
2023-02-13T01:07:20.517Z,6.92
2023-02-13T01:10:06.661Z,6.93
2023-02-13T01:12:52.010Z,6.90
2023-02-13T01:15:37.567Z,6.92
2023-02-13T01:18:23.373Z,6.92
2023-02-13T01:21:15.180Z,6.92
2023-02-13T01:24:03.727Z,6.91
2023-02-13T01:26:48.758Z,6.93
2023-02-13T01:29:34.450Z,7.00
2023-02-13T01:32:20.087Z,7.00
2023-02-13T01:35:06.997Z,7.02
2023-02-13T01:37:52.071Z,7.01
2023-02-13T01:40:36.931Z,7.03
2023-02-13T01:43:22.355Z,7.04
2023-02-13T01:46:07.303Z,6.97
2023-02-13T01:48:56.086Z,6.95
2023-02-13T01:51:43.004Z,7.00
2023-02-13T01:54:33.669Z,7.06
2023-02-13T01:57:22.888Z,6.96
2023-02-13T02:00:14.512Z,6.93
2023-02-13T02:03:05.234Z,6.87
2023-02-13T02:05:51.624Z,6.83
2023-02-13T02:08:37.270Z,6.87
2023-02-13T02:11:47.278Z,6.82
2023-02-13T02:14:32.749Z,6.88
2023-02-13T02:17:19.626Z,6.92
2023-02-13T02:20:41.989Z,6.88
2023-02-13T02:23:42.457Z,6.91
2023-02-13T02:26:42.869Z,6.81
2023-02-13T02:29:49.818Z,6.81
2023-02-13T02:32:57.404Z,6.85
2023-02-13T02:36:01.124Z,6.81
2023-02-13T02:39:04.750Z,6.82
2023-02-13T02:42:10.136Z,6.79
2023-02-13T02:45:13.675Z,6.77
2023-02-13T02:48:17.852Z,6.81
2023-02-13T02:51:35.369Z,6.70
2023-02-13T02:54:34.672Z,6.77
2023-02-13T02:57:30.221Z,6.75
2023-02-13T03:00:22.393Z,6.83
2023-02-13T03:03:34.242Z,6.83
2023-02-13T03:06:34.520Z,6.70
2023-02-13T03:09:25.395Z,6.75
2023-02-13T03:12:15.092Z,6.70
2023-02-13T03:15:00.134Z,6.75
2023-02-13T03:17:45.553Z,6.82
2023-02-13T03:21:00.625Z,6.84
2023-02-13T03:24:23.377Z,6.86
2023-02-13T03:27:26.924Z,6.65
2023-02-13T03:30:35.557Z,6.59
2023-02-13T03:33:39.569Z,6.69
2023-02-13T03:36:59.437Z,6.61
2023-02-13T03:40:03.166Z,6.58
2023-02-13T03:42:56.657Z,6.50
2023-02-13T03:45:46.591Z,6.62
2023-02-13T03:48:36.297Z,6.58
2023-02-13T03:51:27.963Z,6.65
2023-02-13T03:54:39.670Z,6.63
2023-02-13T03:57:27.356Z,6.66
2023-02-13T04:00:14.838Z,6.59
2023-02-13T04:03:18.660Z,6.61
2023-02-13T04:06:09.361Z,6.64
2023-02-13T04:08:54.331Z,6.70
2023-02-13T04:11:49.634Z,6.79
2023-02-13T04:14:43.749Z,6.83
2023-02-13T04:17:59.180Z,6.85
2023-02-13T04:20:44.478Z,6.89
2023-02-13T04:23:29.786Z,6.91
2023-02-13T04:26:19.380Z,6.88
2023-02-13T04:29:05.741Z,6.83
2023-02-13T04:31:51.608Z,6.91
2023-02-13T04:34:37.789Z,6.92
2023-02-13T04:37:23.074Z,6.93
2023-02-13T04:40:09.107Z,6.94
2023-02-13T04:42:54.231Z,6.90
2023-02-13T04:45:39.226Z,6.84
2023-02-13T04:48:24.476Z,7.02
2023-02-13T04:51:09.356Z,6.89
2023-02-13T04:53:54.697Z,6.86
2023-02-13T04:56:39.864Z,6.81
2023-02-13T04:59:25.066Z,6.69
2023-02-13T05:02:10.431Z,6.71
2023-02-13T05:04:55.751Z,6.72
2023-02-13T05:07:41.992Z,6.75
2023-02-13T05:10:27.965Z,6.65
2023-02-13T05:13:13.397Z,6.70
2023-02-13T05:15:58.906Z,6.79
2023-02-13T05:18:44.421Z,6.83
2023-02-13T05:21:29.765Z,6.90
2023-02-13T05:24:14.719Z,6.83
2023-02-13T05:27:00.322Z,6.82
2023-02-13T05:29:45.579Z,6.81
2023-02-13T05:32:30.648Z,6.77
2023-02-13T05:35:15.693Z,6.70
2023-02-13T05:38:01.073Z,6.68
2023-02-13T05:40:46.187Z,6.57
2023-02-13T05:43:31.689Z,6.57
2023-02-13T05:46:17.006Z,6.60
2023-02-13T05:49:04.812Z,6.65
2023-02-13T05:51:50.418Z,6.62
2023-02-13T05:54:35.224Z,6.54
2023-02-13T05:57:20.254Z,6.62
2023-02-13T06:00:06.444Z,6.83
2023-02-13T06:02:51.843Z,6.70
2023-02-13T06:05:37.444Z,6.63
2023-02-13T06:08:23.522Z,6.62
2023-02-13T06:11:09.901Z,6.49
2023-02-13T06:13:55.173Z,6.54
2023-02-13T06:16:41.213Z,6.49
2023-02-13T06:19:26.297Z,6.58
2023-02-13T06:22:14.152Z,6.58
2023-02-13T06:24:59.349Z,6.56
2023-02-13T06:27:44.574Z,6.62
2023-02-13T06:30:31.182Z,6.56
2023-02-13T06:33:16.445Z,6.56
2023-02-13T06:36:01.471Z,6.55
2023-02-13T06:38:46.659Z,6.53
2023-02-13T06:41:31.572Z,6.58
2023-02-13T06:44:16.358Z,6.60
2023-02-13T06:47:01.846Z,6.59
2023-02-13T06:49:47.092Z,6.60
2023-02-13T06:52:32.493Z,6.63
2023-02-13T06:55:19.081Z,6.66
2023-02-13T06:58:04.225Z,6.69
2023-02-13T07:00:55.073Z,6.60
2023-02-13T07:03:40.170Z,6.59
2023-02-13T07:06:25.532Z,6.49
2023-02-13T07:09:11.038Z,6.44
2023-02-13T07:11:56.032Z,6.38
2023-02-13T07:14:41.472Z,6.35
2023-02-13T07:17:27.075Z,6.44
2023-02-13T07:20:12.731Z,6.39
2023-02-13T07:22:59.681Z,6.40
2023-02-13T07:25:44.761Z,6.40
2023-02-13T07:28:30.317Z,6.44
2023-02-13T07:31:16.206Z,6.33
2023-02-13T07:34:01.541Z,6.32
2023-02-13T07:36:46.770Z,6.36
2023-02-13T07:39:32.177Z,6.40
2023-02-13T07:42:17.116Z,6.45
2023-02-13T07:45:02.446Z,6.41
2023-02-13T07:47:48.062Z,6.36
2023-02-13T07:50:33.248Z,6.25
2023-02-13T07:53:18.486Z,6.24
2023-02-13T07:56:07.972Z,6.25
2023-02-13T07:58:53.013Z,6.28
2023-02-13T08:01:38.242Z,6.23
2023-02-13T08:04:25.415Z,6.37
2023-02-13T08:07:11.831Z,6.29
2023-02-13T08:09:56.931Z,6.30
2023-02-13T08:12:42.946Z,6.28
2023-02-13T08:15:28.034Z,6.25
2023-02-13T08:18:13.232Z,6.26
2023-02-13T08:20:58.508Z,6.27
2023-02-13T08:23:43.889Z,6.27
2023-02-13T08:26:31.429Z,6.32
2023-02-13T08:29:16.495Z,6.33
2023-02-13T08:32:01.543Z,6.39
2023-02-13T08:34:46.948Z,6.40
2023-02-13T08:37:32.177Z,6.38
2023-02-13T08:40:17.778Z,6.43
2023-02-13T08:43:04.374Z,6.57
2023-02-13T08:45:49.876Z,6.61
2023-02-13T08:48:35.332Z,6.57
2023-02-13T08:51:20.874Z,6.48
2023-02-13T08:54:06.122Z,6.42
2023-02-13T08:56:51.475Z,6.52
2023-02-13T08:59:36.763Z,6.47
2023-02-13T09:02:21.684Z,6.49
2023-02-13T09:05:07.226Z,6.58
2023-02-13T09:07:53.488Z,6.60
2023-02-13T09:10:38.293Z,6.66
2023-02-13T09:13:23.340Z,6.75
2023-02-13T09:16:08.652Z,6.89
2023-02-13T09:18:54.068Z,7.03
2023-02-13T09:21:38.980Z,6.99
2023-02-13T09:24:24.425Z,6.92
2023-02-13T09:27:09.973Z,6.85
2023-02-13T09:29:55.405Z,7.03
2023-02-13T09:32:41.812Z,7.14
2023-02-13T09:35:27.420Z,6.86
2023-02-13T09:38:12.672Z,6.74
2023-02-13T09:41:02.114Z,6.90
2023-02-13T09:43:50.466Z,7.03
2023-02-13T09:46:38.160Z,6.87
2023-02-13T09:49:28.490Z,6.82
2023-02-13T09:52:13.640Z,6.92
2023-02-13T09:54:58.914Z,6.91
2023-02-13T09:58:06.234Z,6.97
2023-02-13T10:00:55.977Z,6.97
2023-02-13T10:03:46.820Z,6.89
2023-02-13T10:06:37.377Z,6.90
2023-02-13T10:09:33.110Z,7.03
2023-02-13T10:12:46.254Z,7.00
2023-02-13T10:15:44.512Z,7.12
2023-02-13T10:18:42.877Z,7.15
2023-02-13T10:21:36.210Z,7.25
2023-02-13T10:24:44.565Z,7.31
2023-02-13T10:27:37.708Z,7.43
2023-02-13T10:30:30.730Z,7.60
2023-02-13T10:33:30.297Z,7.73
2023-02-13T10:36:23.416Z,7.95
2023-02-13T10:39:24.455Z,7.72
2023-02-13T10:42:15.628Z,7.84
2023-02-13T10:45:10.777Z,7.91
2023-02-13T10:48:08.122Z,8.08
2023-02-13T10:51:22.332Z,8.17
2023-02-13T10:54:16.549Z,8.20
2023-02-13T10:57:19.959Z,8.30
2023-02-13T11:00:32.733Z,8.29
2023-02-13T11:03:20.991Z,8.20
2023-02-13T11:06:09.046Z,8.08
2023-02-13T11:08:54.280Z,8.04
2023-02-13T11:11:42.047Z,8.34
2023-02-13T11:14:27.321Z,8.35
2023-02-13T11:17:18.186Z,8.51
2023-02-13T11:20:08.104Z,8.57
2023-02-13T11:22:53.542Z,8.53
2023-02-13T11:25:38.961Z,8.60
2023-02-13T11:28:25.590Z,8.58
2023-02-13T11:31:30.158Z,8.90
2023-02-13T11:34:34.310Z,8.84
2023-02-13T11:37:24.062Z,8.98
2023-02-13T11:40:31.750Z,8.87
2023-02-13T11:43:29.910Z,9.30
2023-02-13T11:46:24.165Z,9.72
2023-02-13T11:49:27.651Z,9.73
2023-02-13T11:52:26.242Z,9.52
2023-02-13T11:55:35.075Z,9.91
2023-02-13T11:58:25.954Z,10.46
2023-02-13T12:01:20.546Z,10.50
2023-02-13T12:04:16.531Z,11.44
2023-02-13T12:07:04.839Z,11.09
2023-02-13T12:09:59.434Z,10.70
2023-02-13T12:13:09.555Z,10.81
2023-02-13T12:16:26.853Z,10.98
2023-02-13T12:19:18.807Z,10.45
2023-02-13T12:22:32.713Z,10.65
2023-02-13T12:25:43.650Z,10.33
2023-02-13T12:28:54.430Z,11.07
2023-02-13T12:31:51.257Z,11.16
2023-02-13T12:35:10.804Z,11.81
2023-02-13T12:38:01.887Z,11.81
2023-02-13T12:40:53.233Z,12.13
2023-02-13T12:44:33.639Z,11.79
2023-02-13T12:47:30.150Z,11.94
2023-02-13T12:50:52.460Z,11.92
2023-02-13T12:54:11.813Z,12.34
2023-02-13T12:57:12.510Z,12.89
2023-02-13T13:00:26.026Z,12.42
2023-02-13T13:03:35.414Z,12.47
2023-02-13T13:06:35.810Z,11.96
2023-02-13T13:09:33.336Z,12.22
2023-02-13T13:12:30.746Z,12.37
2023-02-13T13:15:50.075Z,12.81
2023-02-13T13:18:54.250Z,12.02
2023-02-13T13:22:14.971Z,12.62
2023-02-13T13:25:24.702Z,12.18
2023-02-13T13:28:22.211Z,12.59
2023-02-13T13:31:08.398Z,12.67
2023-02-13T13:33:58.257Z,12.82
2023-02-13T13:36:50.233Z,12.90
2023-02-13T13:39:47.300Z,12.84
2023-02-13T13:42:41.756Z,13.15
2023-02-13T13:45:50.158Z,13.09
2023-02-13T13:48:54.517Z,13.24
2023-02-13T13:51:39.620Z,13.22
2023-02-13T13:54:33.157Z,12.89
2023-02-13T13:57:25.782Z,13.38
2023-02-13T14:00:14.014Z,13.38
2023-02-13T14:02:59.721Z,14.06
2023-02-13T14:06:12.451Z,13.94
2023-02-13T14:09:21.902Z,12.83
2023-02-13T14:12:46.795Z,13.34
2023-02-13T14:15:34.646Z,12.90
2023-02-13T14:18:23.838Z,12.73
2023-02-13T14:21:09.687Z,12.24
2023-02-13T14:23:55.179Z,12.37
2023-02-13T14:26:41.224Z,13.03
2023-02-13T14:29:29.966Z,12.92
2023-02-13T14:32:29.394Z,12.62
2023-02-13T14:35:22.619Z,12.50
2023-02-13T14:38:23.369Z,12.64
2023-02-13T14:41:46.802Z,12.78
2023-02-13T14:44:46.437Z,13.93
2023-02-13T14:47:37.233Z,13.29
2023-02-13T14:50:22.201Z,12.79
2023-02-13T14:53:16.818Z,13.43
2023-02-13T14:56:07.081Z,13.69
2023-02-13T14:59:15.772Z,13.91
2023-02-13T15:02:12.362Z,13.80
2023-02-13T15:05:00.038Z,13.53
2023-02-13T15:08:15.270Z,13.89
2023-02-13T15:11:00.865Z,13.65
2023-02-13T15:13:46.418Z,13.52
2023-02-13T15:16:31.903Z,13.31
2023-02-13T15:19:19.591Z,12.57
2023-02-13T15:22:06.359Z,12.81
2023-02-13T15:24:52.139Z,13.19
2023-02-13T15:27:46.592Z,13.69
2023-02-13T15:30:34.632Z,14.25
2023-02-13T15:33:22.602Z,13.09
2023-02-13T15:36:25.204Z,13.45
2023-02-13T15:39:17.057Z,13.37
2023-02-13T15:42:20.462Z,12.84
2023-02-13T15:45:13.066Z,12.41
2023-02-13T15:47:58.409Z,12.20
2023-02-13T15:50:44.280Z,11.82
2023-02-13T15:53:29.991Z,11.83
2023-02-13T15:56:15.326Z,11.79
2023-02-13T15:59:02.705Z,12.14
2023-02-13T16:01:50.888Z,11.76
2023-02-13T16:04:37.840Z,11.92
2023-02-13T16:07:23.061Z,11.67
2023-02-13T16:10:26.753Z,11.64
2023-02-13T16:13:18.014Z,11.14
2023-02-13T16:16:09.626Z,11.05
2023-02-13T16:18:54.846Z,10.79
2023-02-13T16:21:39.849Z,10.59
2023-02-13T16:24:26.743Z,10.52
2023-02-13T16:27:19.167Z,10.27
2023-02-13T16:30:19.296Z,10.17
2023-02-13T16:33:16.604Z,10.12
2023-02-13T16:36:11.041Z,9.88
2023-02-13T16:38:56.460Z,9.61
2023-02-13T16:41:41.442Z,9.57
2023-02-13T16:44:32.178Z,9.43
2023-02-13T16:47:23.402Z,9.32
2023-02-13T16:50:14.951Z,9.30
2023-02-13T16:53:03.281Z,9.04
2023-02-13T16:55:57.471Z,9.19
2023-02-13T16:58:42.869Z,9.17
2023-02-13T17:01:28.390Z,8.91
2023-02-13T17:04:22.650Z,8.91
2023-02-13T17:07:23.320Z,9.01
2023-02-13T17:10:23.023Z,8.83
2023-02-13T17:13:17.789Z,8.72
2023-02-13T17:16:02.838Z,8.56
2023-02-13T17:18:48.167Z,8.35
2023-02-13T17:21:33.648Z,8.23
2023-02-13T17:24:18.897Z,8.25
2023-02-13T17:27:04.187Z,8.28
2023-02-13T17:29:49.554Z,8.05
2023-02-13T17:32:36.242Z,7.98
2023-02-13T17:35:21.306Z,7.95
2023-02-13T17:38:08.722Z,7.79
2023-02-13T17:40:54.090Z,7.83
2023-02-13T17:43:39.193Z,7.71
2023-02-13T17:46:24.783Z,7.75
2023-02-13T17:49:10.104Z,7.68
2023-02-13T17:51:55.548Z,7.52
2023-02-13T17:54:41.214Z,7.46
2023-02-13T17:57:26.253Z,7.48
2023-02-13T18:00:12.035Z,7.40
2023-02-13T18:02:59.293Z,7.42
2023-02-13T18:05:48.168Z,7.38
2023-02-13T18:08:33.283Z,7.26
2023-02-13T18:11:18.663Z,7.09
2023-02-13T18:14:04.244Z,7.01
2023-02-13T18:16:49.238Z,7.06
2023-02-13T18:19:34.747Z,6.95
2023-02-13T18:22:19.935Z,6.73
2023-02-13T18:25:05.968Z,6.68
2023-02-13T18:27:51.247Z,6.69
2023-02-13T18:30:36.743Z,6.61
2023-02-13T18:33:21.930Z,6.35
2023-02-13T18:36:06.985Z,6.24
2023-02-13T18:38:52.403Z,6.06
2023-02-13T18:41:37.260Z,5.93
2023-02-13T18:44:28.433Z,5.88
2023-02-13T18:47:14.066Z,5.86
2023-02-13T18:49:59.584Z,6.04
2023-02-13T18:52:44.915Z,5.97
2023-02-13T18:55:30.438Z,6.18
2023-02-13T18:58:15.843Z,6.16
2023-02-13T19:01:09.157Z,6.00
2023-02-13T19:03:54.202Z,6.10
2023-02-13T19:06:40.805Z,6.21
2023-02-13T19:09:26.064Z,6.12
2023-02-13T19:12:11.730Z,5.73
2023-02-13T19:14:57.121Z,5.64
2023-02-13T19:17:42.242Z,5.82
2023-02-13T19:20:27.375Z,5.72
2023-02-13T19:23:12.834Z,5.47
2023-02-13T19:25:58.399Z,5.40
2023-02-13T19:28:43.884Z,5.64
2023-02-13T19:31:31.138Z,5.61
2023-02-13T19:34:16.487Z,5.60
2023-02-13T19:37:01.533Z,5.53
2023-02-13T19:39:46.992Z,5.61
2023-02-13T19:42:32.238Z,5.42
2023-02-13T19:45:17.542Z,5.28
2023-02-13T19:48:02.534Z,5.14
2023-02-13T19:50:48.025Z,5.01
2023-02-13T19:53:33.942Z,4.98
2023-02-13T19:56:19.470Z,4.85
2023-02-13T19:59:06.479Z,4.83
2023-02-13T20:01:51.666Z,4.70
2023-02-13T20:04:36.976Z,4.76
2023-02-13T20:07:22.171Z,4.61
2023-02-13T20:10:08.560Z,4.61
2023-02-13T20:12:54.034Z,4.84
2023-02-13T20:15:40.639Z,4.25
2023-02-13T20:18:25.784Z,4.19
2023-02-13T20:21:16.395Z,4.04
2023-02-13T20:24:02.106Z,4.07
2023-02-13T20:26:47.646Z,4.24
2023-02-13T20:29:32.653Z,4.46
2023-02-13T20:32:18.060Z,4.49
2023-02-13T20:35:03.693Z,4.49
2023-02-13T20:37:48.870Z,4.41
2023-02-13T20:40:34.366Z,4.22
2023-02-13T20:43:20.935Z,4.21
2023-02-13T20:46:07.157Z,3.89
2023-02-13T20:48:52.443Z,3.81
2023-02-13T20:51:37.868Z,3.74
2023-02-13T20:54:23.040Z,3.76
2023-02-13T20:57:08.542Z,3.78
2023-02-13T20:59:53.811Z,3.75
2023-02-13T21:02:39.350Z,4.04
2023-02-13T21:05:24.671Z,4.20
2023-02-13T21:08:10.316Z,4.21
2023-02-13T21:11:01.158Z,4.24
2023-02-13T21:13:47.124Z,3.95
2023-02-13T21:16:38.249Z,3.77
2023-02-13T21:19:23.505Z,3.66
2023-02-13T21:22:08.565Z,3.70
2023-02-13T21:24:54.123Z,3.62
2023-02-13T21:27:39.426Z,3.49
2023-02-13T21:30:24.802Z,3.43
2023-02-13T21:33:10.218Z,3.32
2023-02-13T21:36:07.671Z,3.02
2023-02-13T21:38:53.027Z,3.05
2023-02-13T21:41:43.169Z,3.05
2023-02-13T21:44:28.326Z,2.95
2023-02-13T21:47:13.753Z,3.31
2023-02-13T21:49:59.110Z,3.23
2023-02-13T21:52:44.732Z,3.21
2023-02-13T21:55:30.021Z,2.99
2023-02-13T21:58:15.312Z,2.91
2023-02-13T22:01:01.752Z,2.86
2023-02-13T22:03:48.056Z,2.69
2023-02-13T22:06:35.892Z,2.56
2023-02-13T22:09:21.840Z,2.46
2023-02-13T22:12:07.208Z,2.51
2023-02-13T22:14:54.265Z,2.47
2023-02-13T22:17:39.482Z,2.28
2023-02-13T22:20:25.518Z,2.30
2023-02-13T22:23:10.728Z,2.28
2023-02-13T22:25:56.176Z,2.45
2023-02-13T22:28:41.718Z,2.46
2023-02-13T22:31:27.920Z,2.45
2023-02-13T22:34:13.534Z,2.61
2023-02-13T22:36:58.944Z,2.73
2023-02-13T22:39:44.191Z,2.64
2023-02-13T22:42:29.817Z,2.52
2023-02-13T22:45:15.071Z,2.43
2023-02-13T22:48:00.615Z,2.35
2023-02-13T22:50:45.684Z,2.34
2023-02-13T22:53:31.788Z,2.30
2023-02-13T22:56:17.205Z,2.18
2023-02-13T22:59:02.620Z,2.13
2023-02-13T23:01:48.018Z,2.19
2023-02-13T23:04:33.447Z,2.24
2023-02-13T23:07:18.837Z,2.24
2023-02-13T23:10:04.996Z,2.20
2023-02-13T23:12:49.981Z,2.06
2023-02-13T23:15:36.267Z,2.06
2023-02-13T23:18:21.373Z,2.03
2023-02-13T23:21:07.747Z,2.00
2023-02-13T23:23:53.213Z,1.95
2023-02-13T23:26:38.135Z,1.89
2023-02-13T23:29:23.661Z,1.96
2023-02-13T23:32:09.136Z,2.18
2023-02-13T23:34:54.497Z,2.16
2023-02-13T23:37:39.698Z,2.07
2023-02-13T23:40:24.955Z,1.90
2023-02-13T23:43:10.451Z,1.82
2023-02-13T23:45:55.931Z,1.71
2023-02-13T23:48:41.375Z,1.65
2023-02-13T23:51:26.869Z,1.68
2023-02-13T23:54:17.210Z,1.84
2023-02-13T23:57:02.562Z,1.85
2023-02-13T23:59:47.464Z,1.87
